createdAt,value
2016-12-08T00:01:23.234Z,4.80
2016-12-08T00:04:17.990Z,4.76
2016-12-08T00:07:13.048Z,4.75
2016-12-08T00:10:08.104Z,4.71
2016-12-08T00:13:03.192Z,4.67
2016-12-08T00:15:58.259Z,4.68
2016-12-08T00:18:53.302Z,4.67
2016-12-08T00:21:48.340Z,4.66
2016-12-08T00:24:43.333Z,4.65
2016-12-08T00:27:38.369Z,4.65
2016-12-08T00:30:33.487Z,4.68
2016-12-08T00:33:28.522Z,4.70
2016-12-08T00:36:23.608Z,4.69
2016-12-08T00:39:18.560Z,4.69
2016-12-08T00:42:13.556Z,4.72
2016-12-08T00:45:08.539Z,4.73
2016-12-08T00:48:03.560Z,4.71
2016-12-08T00:50:58.565Z,4.67
2016-12-08T00:53:53.576Z,4.66
2016-12-08T00:56:48.590Z,4.66
2016-12-08T00:59:43.644Z,4.67
2016-12-08T01:02:38.720Z,4.67
2016-12-08T01:05:33.746Z,4.65
2016-12-08T01:08:28.732Z,4.61
2016-12-08T01:11:23.826Z,4.58
2016-12-08T01:14:18.893Z,4.54
2016-12-08T01:17:13.922Z,4.52
2016-12-08T01:20:08.937Z,4.53
2016-12-08T01:23:03.901Z,4.53
2016-12-08T01:25:58.903Z,4.54
2016-12-08T01:28:54.031Z,4.56
2016-12-08T01:31:48.884Z,4.61
2016-12-08T01:34:43.999Z,4.61
2016-12-08T01:37:39.135Z,4.65
2016-12-08T01:40:34.168Z,4.67
2016-12-08T01:43:29.198Z,4.68
2016-12-08T01:46:24.220Z,4.71
2016-12-08T01:49:19.172Z,4.75
2016-12-08T01:52:14.195Z,4.81
2016-12-08T01:55:09.206Z,4.88
2016-12-08T01:58:04.267Z,4.92
2016-12-08T02:00:59.273Z,4.99
2016-12-08T02:03:54.393Z,5.07
2016-12-08T02:06:49.424Z,5.13
2016-12-08T02:09:44.513Z,5.19
2016-12-08T02:12:39.601Z,5.22
2016-12-08T02:15:34.761Z,5.28
2016-12-08T02:18:29.871Z,5.32
2016-12-08T02:21:25.017Z,5.35
2016-12-08T02:24:20.033Z,5.35
2016-12-08T02:27:15.107Z,5.34
2016-12-08T02:30:10.179Z,5.34
2016-12-08T02:33:05.338Z,5.36
2016-12-08T02:36:00.374Z,5.41
2016-12-08T02:38:55.436Z,5.38
2016-12-08T02:41:50.497Z,5.37
2016-12-08T02:44:45.673Z,5.39
2016-12-08T02:47:40.783Z,5.36
2016-12-08T02:50:35.817Z,5.36
2016-12-08T02:53:30.995Z,5.44
2016-12-08T02:56:26.054Z,5.48
2016-12-08T02:59:21.035Z,5.54
2016-12-08T03:02:16.250Z,5.56
2016-12-08T03:05:11.313Z,5.57
2016-12-08T03:08:06.395Z,5.56
2016-12-08T03:11:01.524Z,5.57
2016-12-08T03:13:56.551Z,5.58
2016-12-08T03:16:51.665Z,5.54
2016-12-08T03:19:46.769Z,5.54
2016-12-08T03:22:41.801Z,5.54
2016-12-08T03:25:36.887Z,5.54
2016-12-08T03:28:32.042Z,5.55
2016-12-08T03:31:27.097Z,5.55
2016-12-08T03:34:22.096Z,5.54
2016-12-08T03:37:17.269Z,5.51
2016-12-08T03:40:12.311Z,5.50
2016-12-08T03:43:07.395Z,5.54
2016-12-08T03:46:02.427Z,5.56
2016-12-08T03:48:57.478Z,5.59
2016-12-08T03:51:52.637Z,5.64
2016-12-08T03:54:47.738Z,5.69
2016-12-08T03:57:42.753Z,5.67
2016-12-08T04:00:37.922Z,5.70
2016-12-08T04:03:33.035Z,5.73
2016-12-08T04:06:28.138Z,5.72
2016-12-08T04:09:23.194Z,5.74
2016-12-08T04:12:18.324Z,5.71
2016-12-08T04:15:13.405Z,5.72
2016-12-08T04:18:08.517Z,5.74
2016-12-08T04:21:03.559Z,5.71
2016-12-08T04:23:58.630Z,5.74
2016-12-08T04:26:53.592Z,5.78
2016-12-08T04:29:48.725Z,5.77
2016-12-08T04:32:43.800Z,5.74
2016-12-08T04:35:38.980Z,5.77
2016-12-08T04:38:34.086Z,5.77
2016-12-08T04:41:29.155Z,5.75
2016-12-08T04:44:24.231Z,5.74
2016-12-08T04:47:19.328Z,5.69
2016-12-08T04:50:14.316Z,5.71
2016-12-08T04:53:09.453Z,5.71
2016-12-08T04:56:04.480Z,5.77
2016-12-08T04:58:59.558Z,5.78
2016-12-08T05:01:54.647Z,5.81
2016-12-08T05:04:49.719Z,5.84
2016-12-08T05:07:44.812Z,5.85
2016-12-08T05:10:39.885Z,5.85
2016-12-08T05:13:34.933Z,5.86
2016-12-08T05:16:29.941Z,5.86
2016-12-08T05:19:24.966Z,5.87
2016-12-08T05:22:20.070Z,5.83
2016-12-08T05:25:15.257Z,5.83
2016-12-08T05:28:10.372Z,5.81
2016-12-08T05:31:05.437Z,5.77
2016-12-08T05:34:00.520Z,5.75
2016-12-08T05:36:55.623Z,5.75
2016-12-08T05:39:50.750Z,5.71
2016-12-08T05:42:45.839Z,5.71
2016-12-08T05:45:40.872Z,5.72
2016-12-08T05:48:35.960Z,5.72
2016-12-08T05:51:31.086Z,5.72
2016-12-08T05:54:26.146Z,5.77
2016-12-08T05:57:21.359Z,5.77
2016-12-08T06:00:16.583Z,5.76
2016-12-08T06:03:11.540Z,5.79
2016-12-08T06:06:06.559Z,5.76
2016-12-08T06:09:01.631Z,5.73
2016-12-08T06:11:56.639Z,5.66
2016-12-08T06:14:51.668Z,5.66
2016-12-08T06:17:46.685Z,5.71
2016-12-08T06:20:41.773Z,5.69
2016-12-08T06:23:36.742Z,5.69
2016-12-08T06:26:31.861Z,5.67
2016-12-08T06:29:26.920Z,5.65
2016-12-08T06:32:22.117Z,5.64
2016-12-08T06:35:17.206Z,5.66
2016-12-08T06:38:12.292Z,5.64
2016-12-08T06:41:07.315Z,5.65
2016-12-08T06:44:02.421Z,5.66
2016-12-08T06:46:57.497Z,5.68
2016-12-08T06:49:52.548Z,5.68
2016-12-08T06:52:47.686Z,5.70
2016-12-08T06:55:42.765Z,5.68
2016-12-08T06:58:37.784Z,5.67
2016-12-08T07:01:32.997Z,5.70
2016-12-08T07:04:28.009Z,5.70
2016-12-08T07:07:23.165Z,5.67
2016-12-08T07:10:18.320Z,5.68
2016-12-08T07:13:13.427Z,5.69
2016-12-08T07:16:08.515Z,5.70
2016-12-08T07:19:03.572Z,5.73
2016-12-08T07:21:58.737Z,5.81
2016-12-08T07:24:53.823Z,5.86
2016-12-08T07:27:48.891Z,5.94
2016-12-08T07:30:43.981Z,5.99
2016-12-08T07:33:39.081Z,6.02
2016-12-08T07:36:34.216Z,6.07
2016-12-08T07:39:29.338Z,6.12
2016-12-08T07:42:24.511Z,6.17
2016-12-08T07:45:19.736Z,6.22
2016-12-08T07:48:14.806Z,6.26
2016-12-08T07:51:09.933Z,6.35
2016-12-08T07:54:05.152Z,6.46
2016-12-08T07:57:00.264Z,6.58
2016-12-08T07:59:55.529Z,6.75
2016-12-08T08:02:50.685Z,6.96
2016-12-08T08:05:45.937Z,7.24
2016-12-08T08:08:41.074Z,7.57
2016-12-08T08:11:36.422Z,8.17
2016-12-08T08:14:31.741Z,8.78
2016-12-08T08:17:27.186Z,9.16
2016-12-08T08:20:22.696Z,9.33
2016-12-08T08:23:18.184Z,9.51
2016-12-08T08:26:13.758Z,9.75
2016-12-08T08:29:09.337Z,10.00
2016-12-08T08:32:04.866Z,10.44
2016-12-08T08:35:00.596Z,10.98
2016-12-08T08:37:56.341Z,11.23
2016-12-08T08:40:52.114Z,11.76
2016-12-08T08:43:47.910Z,12.31
2016-12-08T08:46:43.754Z,12.55
2016-12-08T08:49:39.543Z,12.52
2016-12-08T08:52:35.205Z,12.21
2016-12-08T08:55:30.720Z,12.18
2016-12-08T08:58:26.340Z,12.09
2016-12-08T09:01:21.783Z,11.86
2016-12-08T09:04:17.248Z,11.47
2016-12-08T09:07:12.646Z,11.29
2016-12-08T09:10:08.045Z,11.14
2016-12-08T09:13:03.462Z,10.89
2016-12-08T09:15:58.801Z,10.74
2016-12-08T09:18:54.196Z,10.57
2016-12-08T09:21:49.642Z,10.67
2016-12-08T09:24:45.033Z,10.61
2016-12-08T09:27:40.463Z,10.55
2016-12-08T09:30:35.844Z,10.73
2016-12-08T09:33:31.232Z,10.78
2016-12-08T09:36:26.680Z,10.90
2016-12-08T09:39:22.295Z,11.32
2016-12-08T09:42:17.818Z,11.61
2016-12-08T09:45:13.420Z,11.61
2016-12-08T09:48:08.971Z,11.56
2016-12-08T09:51:04.491Z,11.52
2016-12-08T09:53:59.935Z,11.30
2016-12-08T09:56:55.395Z,11.24
2016-12-08T09:59:50.782Z,11.26
2016-12-08T10:02:46.183Z,11.11
2016-12-08T10:05:41.522Z,11.25
2016-12-08T10:08:36.898Z,11.22
2016-12-08T10:11:32.245Z,11.16
2016-12-08T10:14:27.717Z,11.17
2016-12-08T10:17:23.029Z,11.02
2016-12-08T10:20:18.336Z,10.99
2016-12-08T10:23:13.631Z,10.90
2016-12-08T10:26:09.025Z,10.87
2016-12-08T10:29:04.397Z,10.80
2016-12-08T10:31:59.806Z,10.78
2016-12-08T10:34:55.200Z,10.82
2016-12-08T10:37:50.541Z,10.83
2016-12-08T10:40:45.882Z,10.93
2016-12-08T10:43:41.324Z,10.94
2016-12-08T10:46:36.746Z,10.88
2016-12-08T10:49:32.068Z,10.84
2016-12-08T10:52:27.424Z,10.86
2016-12-08T10:55:22.740Z,10.87
2016-12-08T10:58:18.064Z,10.84
2016-12-08T11:01:13.476Z,10.74
2016-12-08T11:04:08.890Z,10.68
2016-12-08T11:07:04.356Z,10.59
2016-12-08T11:09:59.659Z,10.58
2016-12-08T11:12:55.080Z,10.55
2016-12-08T11:15:50.418Z,10.55
2016-12-08T11:18:45.833Z,10.56
2016-12-08T11:21:41.262Z,10.56
2016-12-08T11:24:36.651Z,10.54
2016-12-08T11:27:32.056Z,10.55
2016-12-08T11:30:27.479Z,10.56
2016-12-08T11:33:22.853Z,10.56
2016-12-08T11:36:18.366Z,10.55
2016-12-08T11:39:13.735Z,10.57
2016-12-08T11:42:09.148Z,10.58
2016-12-08T11:45:04.489Z,10.56
2016-12-08T11:48:00.018Z,10.54
2016-12-08T11:50:55.393Z,10.50
2016-12-08T11:53:50.720Z,10.51
2016-12-08T11:56:46.069Z,10.52
2016-12-08T11:59:41.535Z,10.52
2016-12-08T12:02:36.908Z,10.57
2016-12-08T12:05:32.463Z,10.61
2016-12-08T12:08:27.777Z,10.67
2016-12-08T12:11:23.231Z,10.72
2016-12-08T12:14:18.582Z,10.78
2016-12-08T12:17:14.009Z,10.83
2016-12-08T12:20:09.413Z,10.84
2016-12-08T12:23:04.822Z,10.83
2016-12-08T12:26:00.209Z,10.79
2016-12-08T12:28:55.663Z,10.72
2016-12-08T12:31:51.024Z,10.67
2016-12-08T12:34:46.379Z,10.64
2016-12-08T12:37:41.703Z,10.63
2016-12-08T12:40:37.082Z,10.62
2016-12-08T12:43:32.510Z,10.62
2016-12-08T12:46:27.880Z,10.65
2016-12-08T12:49:23.231Z,10.70
2016-12-08T12:52:18.650Z,10.74
2016-12-08T12:55:14.042Z,10.82
2016-12-08T12:58:09.450Z,10.90
2016-12-08T13:01:04.990Z,10.91
2016-12-08T13:04:00.445Z,10.95
2016-12-08T13:06:55.842Z,10.96
2016-12-08T13:09:51.339Z,11.01
2016-12-08T13:12:46.813Z,11.07
2016-12-08T13:15:42.245Z,11.11
2016-12-08T13:18:37.645Z,11.13
2016-12-08T13:21:33.096Z,11.16
2016-12-08T13:24:28.506Z,11.15
2016-12-08T13:27:24.046Z,11.09
2016-12-08T13:30:19.449Z,11.06
2016-12-08T13:33:14.892Z,11.03
2016-12-08T13:36:10.200Z,11.02
2016-12-08T13:39:05.556Z,10.95
2016-12-08T13:42:00.975Z,10.90
2016-12-08T13:44:56.372Z,10.83
2016-12-08T13:47:51.702Z,10.77
2016-12-08T13:50:47.131Z,10.69
2016-12-08T13:53:42.475Z,10.65
2016-12-08T13:56:37.909Z,10.61
2016-12-08T13:59:33.228Z,10.59
2016-12-08T14:02:28.662Z,10.55
2016-12-08T14:05:23.984Z,10.52
2016-12-08T14:08:19.357Z,10.49
2016-12-08T14:11:14.617Z,10.44
2016-12-08T14:14:10.009Z,10.40
2016-12-08T14:17:05.310Z,10.37
2016-12-08T14:20:00.669Z,10.35
2016-12-08T14:22:56.100Z,10.34
2016-12-08T14:25:51.527Z,10.32
2016-12-08T14:28:46.781Z,10.28
2016-12-08T14:31:42.085Z,10.26
2016-12-08T14:34:37.435Z,10.24
2016-12-08T14:37:33.160Z,10.21
2016-12-08T14:40:28.172Z,10.16
2016-12-08T14:43:23.515Z,10.13
2016-12-08T14:46:18.793Z,10.10
2016-12-08T14:49:14.113Z,10.06
2016-12-08T14:52:09.447Z,10.04
2016-12-08T14:55:04.866Z,9.99
2016-12-08T14:58:00.212Z,9.94
2016-12-08T15:00:55.608Z,9.89
2016-12-08T15:03:50.930Z,9.89
2016-12-08T15:06:46.328Z,9.89
2016-12-08T15:09:41.617Z,9.87
2016-12-08T15:12:36.872Z,9.87
2016-12-08T15:15:32.133Z,9.85
2016-12-08T15:18:27.504Z,9.87
2016-12-08T15:21:22.801Z,9.84
2016-12-08T15:24:18.135Z,9.82
2016-12-08T15:27:13.429Z,9.81
2016-12-08T15:30:08.754Z,9.82
2016-12-08T15:33:04.146Z,9.84
2016-12-08T15:35:59.481Z,9.85
2016-12-08T15:38:54.877Z,9.88
2016-12-08T15:41:50.296Z,9.89
2016-12-08T15:44:45.642Z,9.87
2016-12-08T15:47:40.991Z,9.87
2016-12-08T15:50:36.308Z,9.89
2016-12-08T15:53:31.671Z,9.90
2016-12-08T15:56:26.890Z,9.89
2016-12-08T15:59:22.290Z,9.90
2016-12-08T16:02:17.607Z,9.90
2016-12-08T16:05:12.922Z,9.92
2016-12-08T16:08:08.290Z,9.91
2016-12-08T16:11:03.611Z,9.92
2016-12-08T16:13:58.916Z,9.91
2016-12-08T16:16:54.247Z,9.92
2016-12-08T16:19:49.631Z,9.95
2016-12-08T16:22:44.967Z,9.99
2016-12-08T16:25:40.302Z,10.04
2016-12-08T16:28:35.670Z,10.07
2016-12-08T16:31:30.995Z,10.11
2016-12-08T16:34:26.346Z,10.14
2016-12-08T16:37:21.631Z,10.17
2016-12-08T16:40:17.012Z,10.20
2016-12-08T16:43:12.375Z,10.24
2016-12-08T16:46:07.770Z,10.25
2016-12-08T16:49:03.183Z,10.24
2016-12-08T16:51:58.603Z,10.26
2016-12-08T16:54:53.961Z,10.26
2016-12-08T16:57:49.350Z,10.28
2016-12-08T17:00:44.700Z,10.29
2016-12-08T17:03:40.075Z,10.28
2016-12-08T17:06:35.507Z,10.27
2016-12-08T17:09:30.932Z,10.26
2016-12-08T17:12:26.258Z,10.26
2016-12-08T17:15:21.588Z,10.26
2016-12-08T17:18:16.906Z,10.26
2016-12-08T17:21:12.312Z,10.24
2016-12-08T17:24:07.659Z,10.21
2016-12-08T17:27:03.033Z,10.21
2016-12-08T17:29:58.365Z,10.20
2016-12-08T17:32:53.748Z,10.19
2016-12-08T17:35:49.061Z,10.18
2016-12-08T17:38:44.448Z,10.17
2016-12-08T17:41:39.752Z,10.18
2016-12-08T17:44:35.148Z,10.18
2016-12-08T17:47:30.513Z,10.18
2016-12-08T17:50:25.913Z,10.16
2016-12-08T17:53:21.290Z,10.15
2016-12-08T17:56:16.581Z,10.12
2016-12-08T17:59:11.959Z,10.10
2016-12-08T18:02:07.309Z,10.08
2016-12-08T18:05:02.629Z,10.08
2016-12-08T18:07:57.917Z,10.07
2016-12-08T18:10:53.217Z,10.07
2016-12-08T18:13:48.567Z,10.06
2016-12-08T18:16:43.935Z,10.04
2016-12-08T18:19:39.293Z,10.00
2016-12-08T18:22:34.619Z,9.96
2016-12-08T18:25:29.927Z,9.91
2016-12-08T18:28:25.300Z,9.88
2016-12-08T18:31:20.725Z,9.85
2016-12-08T18:34:15.885Z,9.84
2016-12-08T18:37:11.238Z,9.84
2016-12-08T18:40:06.496Z,9.83
2016-12-08T18:43:01.770Z,9.84
2016-12-08T18:45:57.129Z,9.81
2016-12-08T18:48:52.349Z,9.78
2016-12-08T18:51:47.681Z,9.74
2016-12-08T18:54:42.979Z,9.72
2016-12-08T18:57:38.302Z,9.68
2016-12-08T19:00:33.655Z,9.63
2016-12-08T19:03:28.883Z,9.58
2016-12-08T19:06:24.182Z,9.55
2016-12-08T19:09:19.394Z,9.52
2016-12-08T19:12:14.693Z,9.48
2016-12-08T19:15:09.994Z,9.47
2016-12-08T19:18:05.318Z,9.48
2016-12-08T19:21:00.622Z,9.47
2016-12-08T19:23:56.092Z,9.46
2016-12-08T19:26:51.469Z,9.45
2016-12-08T19:29:46.786Z,9.42
2016-12-08T19:32:42.103Z,9.36
2016-12-08T19:35:37.418Z,9.30
2016-12-08T19:38:32.750Z,9.29
2016-12-08T19:41:28.063Z,9.26
2016-12-08T19:44:23.309Z,9.21
2016-12-08T19:47:18.576Z,9.19
2016-12-08T19:50:13.908Z,9.18
2016-12-08T19:53:09.194Z,9.18
2016-12-08T19:56:04.432Z,9.18
2016-12-08T19:58:59.767Z,9.21
2016-12-08T20:01:55.025Z,9.22
2016-12-08T20:04:50.369Z,9.22
2016-12-08T20:07:45.728Z,9.23
2016-12-08T20:10:40.992Z,9.25
2016-12-08T20:13:36.292Z,9.26
2016-12-08T20:16:31.556Z,9.28
2016-12-08T20:19:26.839Z,9.27
2016-12-08T20:22:22.238Z,9.26
2016-12-08T20:25:17.508Z,9.27
2016-12-08T20:28:12.805Z,9.27
2016-12-08T20:31:08.095Z,9.29
2016-12-08T20:34:03.500Z,9.29
2016-12-08T20:36:58.728Z,9.28
2016-12-08T20:39:54.040Z,9.27
2016-12-08T20:42:49.390Z,9.24
2016-12-08T20:45:44.712Z,9.20
2016-12-08T20:48:40.051Z,9.19
2016-12-08T20:51:35.501Z,9.19
2016-12-08T20:54:30.763Z,9.17
2016-12-08T20:57:26.050Z,9.17
2016-12-08T21:00:21.288Z,9.13
2016-12-08T21:03:16.506Z,9.08
2016-12-08T21:06:11.736Z,9.05
2016-12-08T21:09:06.969Z,9.05
2016-12-08T21:12:02.237Z,9.02
2016-12-08T21:14:57.516Z,8.97
2016-12-08T21:17:52.649Z,8.92
2016-12-08T21:20:47.896Z,8.84
2016-12-08T21:23:43.177Z,8.75
2016-12-08T21:26:38.475Z,8.67
2016-12-08T21:29:33.708Z,8.57
2016-12-08T21:32:28.802Z,8.49
2016-12-08T21:35:24.041Z,8.43
2016-12-08T21:38:19.192Z,8.39
2016-12-08T21:41:14.410Z,8.33
2016-12-08T21:44:09.626Z,8.25
2016-12-08T21:47:04.767Z,8.21
2016-12-08T21:50:00.048Z,8.16
2016-12-08T21:52:55.260Z,8.16
2016-12-08T21:55:50.412Z,8.12
2016-12-08T21:58:45.719Z,8.08
2016-12-08T22:01:40.898Z,8.05
2016-12-08T22:04:36.140Z,7.98
2016-12-08T22:07:31.235Z,7.93
2016-12-08T22:10:26.455Z,7.91
